Time;durP1;ratioP1;P1;durP2;ratioP2;P2;SDS_P1;SDS_P2;PMS_P1;PMS_P2;Temp;Humidity;BMP_temperature;BMP_pressure;BME280_temperature;BME280_humidity;BME280_pressure;Samples;Min_cycle;Max_cycle;Signal;HPM_P1;HPM_P2
2023/03/03 00:00:57;;;;;;;35.97;21.93;;;;;;;1.86;100.00;151844.84;5004537;28;20740;-77
2023/03/03 00:03:25;;;;;;;32.40;22.63;;;;;;;1.81;100.00;151832.00;4993816;28;20779;-77
2023/03/03 00:05:52;;;;;;;35.40;23.37;;;;;;;1.79;100.00;151826.84;5017436;28;20639;-77
2023/03/03 00:08:20;;;;;;;34.13;23.40;;;;;;;1.84;100.00;151841.00;4995460;28;20495;-77
2023/03/03 00:10:47;;;;;;;30.43;21.53;;;;;;;1.83;100.00;151837.13;5039490;28;20529;-77
2023/03/03 00:13:18;;;;;;;37.60;21.90;;;;;;;1.74;100.00;151814.00;5042815;28;20528;-77
2023/03/03 00:15:45;;;;;;;31.50;22.17;;;;;;;1.69;100.00;151802.47;5008475;28;20439;-78
2023/03/03 00:18:18;;;;;;;34.10;23.10;;;;;;;1.61;100.00;151781.91;5031230;28;20441;-77
2023/03/03 00:20:49;;;;;;;32.43;21.90;;;;;;;1.59;100.00;151775.47;5014085;28;20455;-77
2023/03/03 00:23:20;;;;;;;32.70;21.80;;;;;;;1.59;100.00;151776.72;4999645;28;20487;-77
2023/03/03 00:25:50;;;;;;;34.17;23.27;;;;;;;1.59;100.00;151775.47;5034575;28;20496;-77
2023/03/03 00:28:23;;;;;;;34.50;21.73;;;;;;;1.60;100.00;151778.00;5025986;28;20529;-77
2023/03/03 00:30:51;;;;;;;32.17;22.43;;;;;;;1.60;100.00;151778.00;4983975;28;20807;-78
2023/03/03 00:33:27;;;;;;;32.20;21.83;;;;;;;1.60;100.00;151778.00;5007279;28;20933;-77
2023/03/03 00:35:54;;;;;;;30.90;21.97;;;;;;;1.58;100.00;151772.88;4995188;28;20465;-77
2023/03/03 00:38:21;;;;;;;35.30;22.87;;;;;;;1.53;100.00;151761.34;5011246;28;21000;-77
2023/03/03 00:40:48;;;;;;;32.77;22.17;;;;;;;1.50;100.00;151753.63;5001094;28;20516;-77
2023/03/03 00:43:20;;;;;;;31.13;20.93;;;;;;;1.45;100.00;151740.78;5038912;28;20504;-78
2023/03/03 00:45:48;;;;;;;36.30;22.40;;;;;;;1.44;100.00;151736.88;5020856;28;20861;-77
2023/03/03 00:48:24;;;;;;;40.10;23.77;;;;;;;1.39;100.00;151724.03;4993563;28;20553;-77
2023/03/03 00:50:51;;;;;;;30.27;21.10;;;;;;;1.36;100.00;151716.31;5007248;28;20456;-77
2023/03/03 00:53:19;;;;;;;32.87;23.27;;;;;;;1.36;100.00;151717.63;5002560;28;20560;-77
2023/03/03 00:55:48;;;;;;;29.70;21.17;;;;;;;1.36;100.00;151717.63;5006039;28;20550;-77
2023/03/03 00:58:17;;;;;;;34.47;23.17;;;;;;;1.35;100.00;151713.78;5009403;28;20459;-77
2023/03/03 01:00:48;;;;;;;29.63;20.83;;;;;;;1.32;100.00;151707.38;4979173;28;20505;-77
2023/03/03 01:03:20;;;;;;;40.60;22.53;;;;;;;1.33;100.00;151709.91;5002437;28;20986;-77
2023/03/03 01:05:48;;;;;;;33.47;21.90;;;;;;;1.30;100.00;151700.94;5032498;28;20481;-77
2023/03/03 01:08:14;;;;;;;35.80;23.57;;;;;;;1.32;100.00;151706.06;5015085;28;20571;-77
2023/03/03 01:10:43;;;;;;;30.60;21.27;;;;;;;1.28;100.00;151697.06;5005860;28;20490;-77
2023/03/03 01:13:10;;;;;;;30.27;21.30;;;;;;;1.24;100.00;151688.06;5009911;28;20460;-77
2023/03/03 01:15:38;;;;;;;34.70;22.13;;;;;;;1.23;100.00;151685.53;5005217;28;20929;-77
2023/03/03 01:18:07;;;;;;;31.07;20.50;;;;;;;1.22;100.00;151682.94;5007130;28;20517;-77
2023/03/03 01:20:33;;;;;;;32.70;20.83;;;;;;;1.19;100.00;151675.22;4997941;28;20455;-77
2023/03/03 01:23:00;;;;;;;34.03;22.37;;;;;;;1.16;100.00;151666.25;5031945;28;20642;-77
2023/03/03 01:25:27;;;;;;;31.83;21.40;;;;;;;1.09;100.00;151648.25;5006209;28;21041;-77
2023/03/03 01:27:54;;;;;;;34.80;22.40;;;;;;;1.10;100.00;151652.13;5038707;28;20855;-77
2023/03/03 01:30:21;;;;;;;30.20;21.03;;;;;;;1.05;100.00;151639.28;5016449;28;20542;-77
2023/03/03 01:32:48;;;;;;;30.97;21.73;;;;;;;1.07;100.00;151644.41;5007394;28;20795;-77
2023/03/03 01:35:16;;;;;;;33.83;22.70;;;;;;;1.03;100.00;151632.88;5036219;28;20986;-77
2023/03/03 01:37:42;;;;;;;30.10;22.80;;;;;;;1.03;100.00;151634.09;5026489;28;21040;-77
2023/03/03 01:40:15;;;;;;;34.90;21.07;;;;;;;1.09;100.00;151649.53;4988813;28;20467;-77
2023/03/03 01:42:42;;;;;;;32.17;20.57;;;;;;;1.08;100.00;151645.69;5002703;28;20490;-77
2023/03/03 01:45:16;;;;;;;32.50;21.37;;;;;;;1.07;100.00;151644.41;4989214;28;20833;-77
2023/03/03 01:47:45;;;;;;;37.50;23.33;;;;;;;1.00;100.00;151626.44;5020074;28;20455;-77
2023/03/03 01:50:17;;;;;;;31.80;20.00;;;;;;;1.03;100.00;151634.09;5019514;28;20454;-77
2023/03/03 01:52:46;;;;;;;34.77;21.70;;;;;;;1.00;100.00;151625.16;5018624;28;20534;-77
2023/03/03 01:55:17;;;;;;;38.27;22.10;;;;;;;0.94;100.00;151609.72;5022754;28;20440;-77
2023/03/03 01:57:47;;;;;;;30.53;20.00;;;;;;;0.90;100.00;151599.47;5035957;28;20563;-77
2023/03/03 02:00:15;;;;;;;32.10;21.20;;;;;;;0.85;100.00;151587.88;4991738;28;20492;-77
2023/03/03 02:02:42;;;;;;;31.97;21.70;;;;;;;0.81;100.00;151576.34;5033474;28;20478;-77
2023/03/03 02:05:09;;;;;;;37.27;21.00;;;;;;;0.69;100.00;151546.78;4984724;28;20466;-77
2023/03/03 02:07:38;;;;;;;30.97;21.40;;;;;;;0.67;100.00;151540.38;5009702;28;20442;-78
2023/03/03 02:10:07;;;;;;;35.50;21.87;;;;;;;0.65;100.00;151535.25;4976300;28;20513;-77
2023/03/03 02:12:38;;;;;;;34.27;21.03;;;;;;;0.62;100.00;151528.81;4991850;28;20489;-77
2023/03/03 02:15:16;;;;;;;35.27;22.47;;;;;;;0.58;100.00;151519.81;5036837;28;20477;-77
2023/03/03 02:17:43;;;;;;;34.50;22.27;;;;;;;0.55;100.00;151512.16;5029896;28;20529;-77
2023/03/03 02:20:13;;;;;;;37.57;22.83;;;;;;;0.52;100.00;151503.16;4985537;28;20557;-77
2023/03/03 02:22:46;;;;;;;32.80;20.17;;;;;;;0.50;100.00;151499.28;5007469;28;20450;-78
2023/03/03 02:25:18;;;;;;;37.53;22.67;;;;;;;0.49;100.00;151495.44;5014941;28;20609;-77
2023/03/03 02:27:47;;;;;;;37.97;22.40;;;;;;;0.47;100.00;151490.34;5037317;28;20582;-78
2023/03/03 02:30:16;;;;;;;41.07;24.30;;;;;;;0.43;100.00;151480.03;5039310;28;20489;-78
2023/03/03 02:32:43;;;;;;;32.27;23.20;;;;;;;0.43;100.00;151480.03;4996375;28;20454;-77
2023/03/03 02:35:30;;;;;;;34.50;22.30;;;;;;;0.42;100.00;151477.50;4994913;28;20437;-77
2023/03/03 02:38:02;;;;;;;34.40;23.03;;;;;;;0.39;100.00;151471.09;5032016;28;20454;-77
2023/03/03 02:40:31;;;;;;;40.00;23.30;;;;;;;0.38;100.00;151467.19;5002548;28;21134;-77
2023/03/03 02:43:01;;;;;;;35.30;21.77;;;;;;;0.37;100.00;151464.66;5016608;28;20952;-77
2023/03/03 02:45:28;;;;;;;34.60;23.30;;;;;;;0.40;100.00;151472.31;5013455;28;20473;-77
2023/03/03 02:47:54;;;;;;;31.27;21.70;;;;;;;0.38;100.00;151467.19;4979822;28;20461;-77
2023/03/03 02:50:21;;;;;;;37.67;21.37;;;;;;;0.43;100.00;151480.03;5018783;28;20470;-77
2023/03/03 02:52:48;;;;;;;35.37;21.50;;;;;;;0.49;100.00;151495.44;5031222;28;20479;-77
2023/03/03 02:55:15;;;;;;;40.93;24.17;;;;;;;0.59;100.00;151521.13;5006831;28;20458;-77
2023/03/03 02:57:41;;;;;;;36.73;23.40;;;;;;;0.68;100.00;151544.25;5003513;28;20445;-77
2023/03/03 03:00:11;;;;;;;44.63;24.30;;;;;;;0.79;100.00;151571.22;5002447;28;20550;-77
2023/03/03 03:02:38;;;;;;;42.13;25.67;;;;;;;0.86;100.00;151590.47;4994226;28;20819;-77
2023/03/03 03:05:07;;;;;;;41.50;24.60;;;;;;;0.98;100.00;151620.03;5009302;28;20480;-77
2023/03/03 03:07:34;;;;;;;41.27;25.07;;;;;;;1.03;100.00;151632.88;5006727;28;20451;-78
2023/03/03 03:10:03;;;;;;;36.70;24.23;;;;;;;1.07;100.00;151644.41;5001240;28;20890;-77
2023/03/03 03:12:32;;;;;;;40.23;24.87;;;;;;;1.13;100.00;151659.84;5009365;28;20965;-77
2023/03/03 03:15:00;;;;;;;37.80;24.50;;;;;;;1.15;100.00;151664.97;5015763;28;20477;-78
2023/03/03 03:17:29;;;;;;;44.77;26.20;;;;;;;1.17;100.00;151670.09;5004481;28;20461;-77
2023/03/03 03:19:55;;;;;;;35.87;23.37;;;;;;;1.25;100.00;151689.34;4980481;28;20436;-77
2023/03/03 03:22:22;;;;;;;41.00;26.67;;;;;;;1.42;100.00;151731.75;5001079;28;20453;-77
2023/03/03 03:24:49;;;;;;;41.87;26.00;;;;;;;1.42;100.00;151731.75;5026006;28;20472;-77
2023/03/03 03:27:16;;;;;;;43.57;25.30;;;;;;;1.48;100.00;151747.19;5034800;28;20475;-77
2023/03/03 03:29:43;;;;;;;41.60;26.17;;;;;;;1.50;100.00;151752.31;5004460;28;20474;-77
2023/03/03 03:32:11;;;;;;;35.60;21.50;;;;;;;1.51;100.00;151754.91;4976252;28;20531;-77
2023/03/03 03:34:40;;;;;;;37.13;23.83;;;;;;;1.70;100.00;151803.69;5008514;28;20443;-78
2023/03/03 03:37:08;;;;;;;42.60;25.60;;;;;;;1.68;100.00;151799.88;5018725;28;20446;-78
2023/03/03 03:39:36;;;;;;;34.07;22.93;;;;;;;1.67;100.00;151795.97;4993032;28;20504;-77
2023/03/03 03:42:03;;;;;;;38.70;25.23;;;;;;;1.78;100.00;151824.25;5028118;28;20438;-78
2023/03/03 03:44:30;;;;;;;37.77;24.37;;;;;;;1.78;100.00;151824.25;5007352;28;20478;-78
2023/03/03 03:46:57;;;;;;;37.93;23.10;;;;;;;1.82;100.00;151834.56;5006205;28;20838;-78
2023/03/03 03:49:24;;;;;;;38.97;25.77;;;;;;;1.80;100.00;151829.44;4988246;28;20439;-78
2023/03/03 03:51:54;;;;;;;43.00;26.00;;;;;;;1.78;100.00;151824.25;5028279;28;20543;-78
2023/03/03 03:54:24;;;;;;;43.90;25.03;;;;;;;1.81;100.00;151833.28;5003456;28;20548;-78
2023/03/03 03:56:53;;;;;;;41.10;25.07;;;;;;;1.94;100.00;151865.41;5011819;28;20447;-78
2023/03/03 03:59:20;;;;;;;40.33;24.10;;;;;;;1.87;100.00;151847.41;5014348;28;20509;-78
2023/03/03 04:01:48;;;;;;;36.47;24.13;;;;;;;2.01;100.00;151883.44;4990931;28;20543;-78
2023/03/03 04:04:16;;;;;;;40.77;25.03;;;;;;;2.23;100.00;151939.97;4991487;28;20466;-78
2023/03/03 04:06:43;;;;;;;37.93;25.17;;;;;;;2.22;99.77;151936.13;5027562;28;21020;-78
2023/03/03 04:09:12;;;;;;;39.63;22.90;;;;;;;2.12;100.00;151911.69;4989548;28;20504;-78
2023/03/03 04:11:38;;;;;;;34.27;24.13;;;;;;;2.18;100.00;151927.13;5014713;28;20782;-78
2023/03/03 04:14:07;;;;;;;36.93;24.30;;;;;;;2.05;100.00;151892.41;4992963;28;20466;-78
2023/03/03 04:16:35;;;;;;;38.17;25.10;;;;;;;2.07;100.00;151897.53;4994844;28;20445;-78
2023/03/03 04:19:02;;;;;;;40.30;24.60;;;;;;;1.95;100.00;151868.00;4986736;28;20451;-78
2023/03/03 04:21:31;;;;;;;43.73;25.57;;;;;;;1.92;100.00;151860.28;4993760;28;20447;-77
2023/03/03 04:23:59;;;;;;;37.00;24.17;;;;;;;1.85;100.00;151842.28;5029256;28;20475;-78
2023/03/03 04:26:29;;;;;;;38.63;25.40;;;;;;;1.87;100.00;151847.41;5008082;28;20445;-78
2023/03/03 04:28:57;;;;;;;35.87;24.90;;;;;;;2.04;100.00;151891.09;5008345;28;20455;-78
2023/03/03 04:31:24;;;;;;;37.13;24.47;;;;;;;1.97;100.00;151871.81;5003562;28;20561;-78
2023/03/03 04:33:52;;;;;;;41.27;24.80;;;;;;;1.90;100.00;151855.16;4980950;28;20451;-78
2023/03/03 04:36:19;;;;;;;38.77;23.50;;;;;;;1.88;100.00;151849.97;4981465;28;20946;-78
2023/03/03 04:38:48;;;;;;;34.57;23.00;;;;;;;1.86;100.00;151844.84;4979913;28;20483;-78
2023/03/03 04:41:15;;;;;;;37.57;24.07;;;;;;;1.84;100.00;151839.72;5006591;28;20455;-78
2023/03/03 04:43:43;;;;;;;35.63;25.00;;;;;;;1.84;100.00;151839.72;5025826;28;20520;-78
2023/03/03 04:46:12;;;;;;;41.47;24.50;;;;;;;1.86;100.00;151844.84;4989288;28;20469;-78
2023/03/03 04:48:39;;;;;;;36.97;24.00;;;;;;;1.84;100.00;151841.00;5023172;28;20465;-78
2023/03/03 04:51:06;;;;;;;37.40;24.50;;;;;;;1.84;100.00;151839.72;4993633;28;20446;-78
2023/03/03 04:53:35;;;;;;;36.90;24.50;;;;;;;1.87;100.00;151847.41;5028942;28;20822;-78
2023/03/03 04:56:03;;;;;;;39.10;25.17;;;;;;;1.91;100.00;151856.44;4992570;28;20491;-78
2023/03/03 04:58:30;;;;;;;38.33;24.43;;;;;;;2.17;100.00;151923.28;5019625;28;20476;-78
2023/03/03 05:00:59;;;;;;;39.57;24.73;;;;;;;2.37;99.05;151974.69;5002996;28;20498;-78
2023/03/03 05:03:28;;;;;;;37.03;23.37;;;;;;;2.25;99.42;151943.84;5006259;28;20490;-78
2023/03/03 05:05:55;;;;;;;34.33;22.93;;;;;;;2.17;100.00;151924.53;4998529;28;20472;-78
2023/03/03 05:08:22;;;;;;;39.13;25.53;;;;;;;2.23;99.22;151939.97;4999884;28;20493;-78
2023/03/03 05:10:52;;;;;;;36.80;23.50;;;;;;;2.12;100.00;151910.44;5025396;28;20932;-78
2023/03/03 05:13:18;;;;;;;46.60;25.60;;;;;;;2.26;99.61;151946.41;5006766;28;20543;-78
2023/03/03 05:15:49;;;;;;;37.97;24.30;;;;;;;2.29;99.00;151955.41;5032577;28;20447;-78
2023/03/03 05:18:18;;;;;;;36.10;23.53;;;;;;;2.10;100.00;151905.25;5036463;28;20476;-78
2023/03/03 05:20:44;;;;;;;39.73;23.53;;;;;;;1.97;100.00;151873.13;5003790;28;20510;-78
2023/03/03 05:23:11;;;;;;;39.97;24.40;;;;;;;1.98;100.00;151875.72;5005699;28;20549;-78
2023/03/03 05:25:40;;;;;;;41.97;25.57;;;;;;;2.08;99.80;151901.41;5002019;28;20884;-77
2023/03/03 05:28:07;;;;;;;40.97;25.03;;;;;;;1.97;100.00;151873.13;5041223;28;20538;-78
2023/03/03 05:30:33;;;;;;;38.23;25.40;;;;;;;1.90;100.00;151855.16;4986423;28;20461;-77
2023/03/03 05:33:00;;;;;;;36.40;24.50;;;;;;;1.88;100.00;151849.97;5006360;28;20848;-77
2023/03/03 05:35:28;;;;;;;35.37;22.70;;;;;;;1.88;100.00;151848.72;5025632;28;20540;-78
2023/03/03 05:37:56;;;;;;;32.60;23.40;;;;;;;1.89;100.00;151851.25;5011309;28;20799;-77
2023/03/03 05:40:24;;;;;;;39.50;22.90;;;;;;;1.86;100.00;151844.84;5019304;28;20450;-78
2023/03/03 05:42:50;;;;;;;36.50;24.50;;;;;;;1.83;100.00;151837.13;5006653;28;20526;-77
2023/03/03 05:45:19;;;;;;;38.83;24.70;;;;;;;1.78;100.00;151824.25;5008507;28;20475;-78
2023/03/03 05:47:46;;;;;;;35.17;23.37;;;;;;;1.82;100.00;151834.56;4992030;28;20447;-77
2023/03/03 05:50:12;;;;;;;36.77;23.10;;;;;;;1.81;100.00;151833.28;5026823;28;20460;-77
2023/03/03 05:52:40;;;;;;;35.87;24.77;;;;;;;1.79;100.00;151826.84;5002407;28;20483;-78
2023/03/03 05:55:08;;;;;;;34.30;23.33;;;;;;;1.98;99.81;151874.41;4992592;28;20531;-77
2023/03/03 05:57:35;;;;;;;44.43;24.87;;;;;;;1.89;100.00;151852.56;5004186;28;20501;-77
2023/03/03 06:00:03;;;;;;;38.00;22.60;;;;;;;1.87;100.00;151846.13;5005430;28;20463;-77
2023/03/03 06:02:38;;;;;;;35.10;23.87;;;;;;;1.88;100.00;151849.97;4999963;28;20444;-77
2023/03/03 06:05:06;;;;;;;32.90;23.67;;;;;;;1.85;100.00;151842.28;5036270;28;20475;-77
2023/03/03 06:07:33;;;;;;;37.47;24.00;;;;;;;1.83;100.00;151837.13;5002891;28;21041;-77
2023/03/03 06:10:01;;;;;;;33.20;22.50;;;;;;;1.83;100.00;151837.13;5035926;28;20488;-77
2023/03/03 06:12:30;;;;;;;36.30;23.23;;;;;;;1.80;100.00;151830.69;4984832;28;20478;-78
2023/03/03 06:14:57;;;;;;;38.97;22.90;;;;;;;1.77;100.00;151821.72;5037862;28;20482;-78
2023/03/03 06:17:24;;;;;;;42.17;23.00;;;;;;;1.88;100.00;151849.97;5006638;28;20493;-78
2023/03/03 06:19:50;;;;;;;35.30;22.70;;;;;;;1.95;99.56;151866.69;5014020;28;21027;-78
2023/03/03 06:22:17;;;;;;;35.53;23.70;;;;;;;1.89;99.99;151851.25;5006410;28;20547;-77
2023/03/03 06:24:44;;;;;;;38.27;24.40;;;;;;;1.90;100.00;151855.16;5036758;28;20779;-77
2023/03/03 06:27:12;;;;;;;35.70;23.07;;;;;;;2.18;96.83;151927.13;5004376;28;20953;-77
2023/03/03 06:29:39;;;;;;;36.10;22.33;;;;;;;2.07;97.19;151897.53;5033867;28;20468;-78
2023/03/03 06:32:06;;;;;;;34.43;23.10;;;;;;;1.93;97.73;151862.88;5035922;28;20991;-77
2023/03/03 06:34:32;;;;;;;36.50;22.93;;;;;;;1.83;98.20;151838.41;5009044;28;20810;-78
2023/03/03 06:36:59;;;;;;;32.27;22.23;;;;;;;1.81;99.10;151832.00;5038593;28;20898;-77
2023/03/03 06:39:26;;;;;;;32.00;20.27;;;;;;;1.94;99.58;151864.09;5023866;28;20453;-77
2023/03/03 06:41:52;;;;;;;36.23;22.83;;;;;;;1.92;98.19;151860.28;5042844;28;20938;-77
2023/03/03 06:44:20;;;;;;;35.97;22.80;;;;;;;2.03;98.07;151887.25;5041281;28;20857;-77
2023/03/03 06:46:47;;;;;;;35.63;22.63;;;;;;;2.09;96.86;151903.94;5039974;28;20535;-77
2023/03/03 06:49:14;;;;;;;30.60;20.80;;;;;;;2.10;96.82;151906.53;5005301;28;20503;-77
2023/03/03 06:51:41;;;;;;;36.07;22.50;;;;;;;2.16;95.98;151920.69;5007839;28;20438;-77
2023/03/03 06:54:12;;;;;;;37.77;23.23;;;;;;;2.07;96.51;151897.53;5038502;28;20463;-77
2023/03/03 06:56:39;;;;;;;30.20;21.13;;;;;;;1.97;97.80;151873.13;5017169;28;20548;-77
2023/03/03 06:59:12;;;;;;;30.30;21.53;;;;;;;1.92;100.00;151860.28;5040794;28;20548;-78
2023/03/03 07:01:40;;;;;;;34.67;22.00;;;;;;;1.88;100.00;151849.97;5009346;28;20460;-77
2023/03/03 07:04:14;;;;;;;30.10;21.77;;;;;;;1.85;100.00;151842.28;4999623;28;20465;-77
2023/03/03 07:06:40;;;;;;;35.03;22.27;;;;;;;1.85;100.00;151842.28;5009495;28;20510;-77
2023/03/03 07:09:15;;;;;;;33.93;20.90;;;;;;;1.84;99.58;151839.72;5036984;28;20942;-77
2023/03/03 07:11:42;;;;;;;32.67;22.80;;;;;;;1.85;99.84;151842.28;5039782;28;20446;-78
2023/03/03 07:14:15;;;;;;;32.30;22.33;;;;;;;2.01;98.45;151883.44;5037676;28;20536;-78
2023/03/03 07:16:43;;;;;;;36.13;21.97;;;;;;;2.19;96.29;151928.41;5020152;28;20546;-77
2023/03/03 07:19:18;;;;;;;28.60;20.17;;;;;;;2.07;95.97;151898.81;5040412;28;20878;-77
2023/03/03 07:21:45;;;;;;;27.00;18.33;;;;;;;1.98;96.35;151875.72;5008878;28;20451;-78
2023/03/03 07:24:19;;;;;;;32.80;20.90;;;;;;;2.00;97.20;151879.56;5004827;28;20555;-78
2023/03/03 07:26:46;;;;;;;31.70;20.80;;;;;;;2.01;97.83;151883.44;5008487;28;20513;-77
2023/03/03 07:29:21;;;;;;;29.30;21.17;;;;;;;1.99;97.66;151878.25;5037554;28;20455;-77
2023/03/03 07:31:50;;;;;;;29.63;19.17;;;;;;;2.03;97.52;151888.56;5040464;28;20494;-78
2023/03/03 07:34:21;;;;;;;30.07;18.90;;;;;;;2.06;97.47;151896.28;5037918;28;20950;-78
2023/03/03 07:36:49;;;;;;;30.70;20.70;;;;;;;2.21;96.25;151934.84;5022305;28;20450;-78
2023/03/03 07:39:32;;;;;;;30.87;20.67;;;;;;;2.22;94.73;151937.44;5038797;28;20807;-77
2023/03/03 07:42:19;;;;;;;28.33;19.10;;;;;;;2.17;96.14;151924.53;5004948;28;20859;-77
2023/03/03 07:44:51;;;;;;;27.03;17.97;;;;;;;2.19;95.09;151928.41;5038775;28;20962;-77
2023/03/03 07:47:24;;;;;;;31.93;21.70;;;;;;;2.23;94.10;151939.97;5007585;28;20456;-77
2023/03/03 07:49:51;;;;;;;28.13;18.90;;;;;;;2.35;95.79;151970.84;5038760;28;20450;-78
2023/03/03 07:52:23;;;;;;;29.27;18.20;;;;;;;2.52;96.05;152011.97;5038281;28;20926;-78
2023/03/03 07:54:53;;;;;;;29.53;21.40;;;;;;;2.78;95.55;152078.88;5015973;28;20458;-78
2023/03/03 07:57:23;;;;;;;28.77;20.47;;;;;;;3.19;92.09;152184.38;5041493;28;20515;-77
2023/03/03 07:59:51;;;;;;;27.47;20.03;;;;;;;3.52;90.14;152269.28;5038127;28;20452;-78
2023/03/03 08:02:38;;;;;;;34.70;20.87;;;;;;;4.00;89.40;152391.59;5038312;28;20939;-77
2023/03/03 08:05:27;;;;;;;30.20;19.70;;;;;;;4.63;81.77;152552.59;5037870;28;20513;-78
2023/03/03 08:07:54;;;;;;;35.60;19.97;;;;;;;5.21;80.73;152699.56;5016483;28;20797;-78
2023/03/03 08:10:35;;;;;;;28.90;19.87;;;;;;;5.66;76.50;152815.59;5031155;28;20476;-78
2023/03/03 08:13:05;;;;;;;26.03;18.93;;;;;;;5.79;76.26;152849.13;4985346;28;20975;-77
2023/03/03 08:15:32;;;;;;;29.00;19.50;;;;;;;5.69;73.44;152823.34;5021825;28;20441;-77
2023/03/03 08:18:01;;;;;;;28.10;20.03;;;;;;;5.50;74.35;152774.31;5038136;28;20463;-77
2023/03/03 08:20:58;;;;;;;29.10;20.10;;;;;;;5.31;74.39;152726.63;5006679;28;20445;-77
2023/03/03 08:23:25;;;;;;;24.23;18.47;;;;;;;5.11;74.68;152673.78;4967207;28;20548;-77
2023/03/03 08:25:52;;;;;;;30.87;19.47;;;;;;;5.13;79.65;152680.22;4993955;28;21009;-77
2023/03/03 08:28:20;;;;;;;25.93;19.37;;;;;;;5.28;75.32;152717.59;5003949;28;20452;-77
2023/03/03 08:30:47;;;;;;;28.20;20.37;;;;;;;5.11;75.54;152675.03;5015532;28;20477;-77
2023/03/03 08:33:16;;;;;;;27.83;19.83;;;;;;;5.07;77.91;152664.75;5020509;28;20477;-77
2023/03/03 08:35:43;;;;;;;27.87;20.03;;;;;;;5.10;77.51;152671.19;4997021;28;21030;-77
2023/03/03 08:38:10;;;;;;;25.23;18.83;;;;;;;5.12;77.90;152677.63;5038225;28;20453;-77
2023/03/03 08:40:37;;;;;;;25.60;18.97;;;;;;;5.18;76.15;152691.81;4986187;28;20495;-77
2023/03/03 08:43:04;;;;;;;32.07;20.43;;;;;;;5.28;75.99;152717.59;5006551;28;20502;-77
2023/03/03 08:45:31;;;;;;;26.70;19.10;;;;;;;5.11;77.86;152675.03;5035536;28;20883;-77
2023/03/03 08:47:59;;;;;;;29.50;21.63;;;;;;;5.03;78.88;152653.16;5038016;28;20493;-77
2023/03/03 08:50:27;;;;;;;27.80;20.33;;;;;;;5.12;78.46;152676.31;5036771;28;20449;-77
2023/03/03 08:52:55;;;;;;;29.50;20.37;;;;;;;5.36;77.26;152739.50;5036843;28;20523;-77
2023/03/03 08:55:22;;;;;;;30.23;20.83;;;;;;;5.45;75.20;152762.69;5032327;28;20449;-77
2023/03/03 08:57:48;;;;;;;27.10;20.00;;;;;;;5.43;75.93;152756.25;5003493;28;21095;-77
2023/03/03 09:00:17;;;;;;;28.00;21.50;;;;;;;5.18;78.57;152691.81;5037712;28;20976;-77
2023/03/03 09:02:43;;;;;;;37.17;21.47;;;;;;;5.40;76.55;152748.56;5035028;28;20441;-77
2023/03/03 09:05:11;;;;;;;29.50;20.97;;;;;;;5.36;76.13;152739.50;5001080;28;20832;-77
2023/03/03 09:07:40;;;;;;;28.53;21.17;;;;;;;5.20;77.02;152696.94;5002877;28;20449;-77
2023/03/03 09:10:08;;;;;;;30.23;22.43;;;;;;;5.41;77.36;152751.09;5015381;28;20480;-77
2023/03/03 09:12:36;;;;;;;30.13;21.50;;;;;;;5.52;76.81;152779.47;5035555;28;20533;-77
2023/03/03 09:15:13;;;;;;;30.10;21.93;;;;;;;5.56;75.90;152788.50;5014388;28;20550;-77
2023/03/03 09:17:40;;;;;;;31.10;21.23;;;;;;;5.72;76.07;152831.03;5036553;28;20593;-76
2023/03/03 09:20:22;;;;;;;34.73;20.87;;;;;;;5.62;75.42;152805.25;5015044;28;20452;-77
2023/03/03 09:22:50;;;;;;;34.23;22.20;;;;;;;5.50;75.68;152774.31;5033588;28;20457;-77
2023/03/03 09:25:22;;;;;;;33.73;21.90;;;;;;;5.62;76.02;152805.25;5014427;28;20464;-77
2023/03/03 09:27:49;;;;;;;29.90;22.10;;;;;;;5.72;74.65;152831.03;5035675;28;20559;-77
2023/03/03 09:30:30;;;;;;;31.07;20.40;;;;;;;5.67;74.10;152816.84;5037333;28;20449;-77
2023/03/03 09:32:58;;;;;;;30.57;22.60;;;;;;;5.51;75.60;152776.88;5038979;28;20457;-77
2023/03/03 09:35:39;;;;;;;31.40;21.43;;;;;;;5.29;76.70;152720.19;5038557;28;20487;-76
2023/03/03 09:38:18;;;;;;;30.20;22.30;;;;;;;5.37;76.25;152740.81;5020011;28;20456;-76
2023/03/03 09:40:55;;;;;;;30.43;22.17;;;;;;;5.36;75.96;152739.50;4993376;28;20538;-78
2023/03/03 09:43:27;;;;;;;30.80;22.40;;;;;;;5.13;77.43;152678.94;5005295;28;20816;-78
2023/03/03 09:46:00;;;;;;;32.03;22.73;;;;;;;5.43;76.27;152756.25;5006877;28;20559;-78
2023/03/03 09:48:44;;;;;;;28.07;21.50;;;;;;;5.77;74.61;152843.94;4976348;28;20463;-77
2023/03/03 09:51:39;;;;;;;29.80;21.07;;;;;;;5.65;75.06;152813.00;5039451;28;20480;-78
2023/03/03 09:54:18;;;;;;;33.37;22.07;;;;;;;5.79;74.81;152849.13;5005754;28;20484;-75
2023/03/03 09:56:49;;;;;;;31.50;21.53;;;;;;;5.65;77.39;152813.00;5035929;28;20621;-78
2023/03/03 09:59:26;;;;;;;29.60;20.40;;;;;;;5.74;74.47;152836.22;5035199;28;20457;-78
2023/03/03 10:02:02;;;;;;;31.00;22.70;;;;;;;5.51;75.21;152776.88;5005161;28;20466;-78
2023/03/03 10:04:44;;;;;;;28.07;21.17;;;;;;;5.72;74.44;152831.03;5007151;28;20547;-78
2023/03/03 10:07:34;;;;;;;32.40;22.77;;;;;;;5.63;75.19;152806.56;5037968;28;20468;-78
2023/03/03 10:10:21;;;;;;;30.53;22.40;;;;;;;5.64;75.07;152809.16;5041994;28;20840;-78
2023/03/03 10:12:55;;;;;;;30.23;21.57;;;;;;;5.80;75.02;152851.66;5042861;28;20519;-79
2023/03/03 10:15:31;;;;;;;32.30;23.20;;;;;;;5.98;73.66;152896.91;5007915;28;20568;-78
2023/03/03 10:18:03;;;;;;;31.30;22.40;;;;;;;5.87;74.77;152868.50;5037806;28;20503;-78
2023/03/03 10:20:37;;;;;;;36.17;24.50;;;;;;;5.84;76.23;152862.00;5024136;28;20471;-78
2023/03/03 10:23:10;;;;;;;31.67;22.47;;;;;;;6.18;73.83;152947.19;5010202;28;20856;-78
2023/03/03 10:25:44;;;;;;;29.20;20.70;;;;;;;6.02;73.94;152907.19;5039910;28;20455;-78
2023/03/03 10:28:29;;;;;;;36.17;22.03;;;;;;;6.01;74.64;152905.88;5025640;28;20460;-78
2023/03/03 10:31:03;;;;;;;29.60;22.20;;;;;;;6.19;72.91;152949.78;5041049;28;21018;-78
2023/03/03 10:33:34;;;;;;;28.70;21.67;;;;;;;6.04;74.18;152913.63;5039462;28;20453;-78
2023/03/03 10:36:28;;;;;;;30.10;21.73;;;;;;;6.26;73.24;152967.81;5009246;28;20449;-78
2023/03/03 10:39:06;;;;;;;31.13;23.13;;;;;;;6.21;72.97;152956.22;4997082;28;20465;-78
2023/03/03 10:41:43;;;;;;;28.73;22.10;;;;;;;6.43;72.03;153011.72;5043254;28;20472;-78
2023/03/03 10:44:27;;;;;;;26.77;20.57;;;;;;;6.30;71.12;152979.41;5006481;28;20468;-78
2023/03/03 10:47:21;;;;;;;29.87;20.73;;;;;;;6.23;71.78;152960.06;5039864;28;20534;-78
2023/03/03 10:49:55;;;;;;;30.57;22.47;;;;;;;6.14;71.57;152939.44;5007367;28;20472;-78
2023/03/03 10:52:33;;;;;;;27.20;20.70;;;;;;;6.13;73.13;152935.59;5020712;28;20458;-78
2023/03/03 10:55:25;;;;;;;29.00;22.00;;;;;;;6.19;71.62;152951.06;5039313;28;20938;-78
2023/03/03 10:58:03;;;;;;;26.63;19.87;;;;;;;6.20;72.09;152953.63;5037477;28;20449;-78
2023/03/03 11:00:31;;;;;;;30.40;22.13;;;;;;;6.38;70.93;152998.81;4989802;28;20455;-78
2023/03/03 11:03:21;;;;;;;31.60;21.40;;;;;;;6.23;71.99;152960.06;5009983;28;20453;-78
2023/03/03 11:05:51;;;;;;;26.30;20.20;;;;;;;6.52;70.77;153034.91;5039812;28;20453;-78
2023/03/03 11:08:22;;;;;;;28.67;21.73;;;;;;;6.37;70.69;152996.22;5009800;28;20499;-78
2023/03/03 11:10:54;;;;;;;30.77;22.30;;;;;;;6.36;70.78;152993.63;5007696;28;20449;-78
2023/03/03 11:13:27;;;;;;;34.23;21.63;;;;;;;6.36;70.77;152993.63;5009486;28;20579;-78
2023/03/03 11:16:01;;;;;;;26.70;20.77;;;;;;;6.44;73.26;153014.28;5039159;28;20996;-78
2023/03/03 11:18:43;;;;;;;28.40;22.30;;;;;;;6.52;76.36;153034.91;5002757;28;20461;-78
2023/03/03 11:21:15;;;;;;;29.13;21.40;;;;;;;6.63;70.43;153064.63;5006425;28;20530;-78
2023/03/03 11:23:58;;;;;;;30.77;22.30;;;;;;;6.70;70.08;153082.66;5007567;28;20462;-77
2023/03/03 11:26:39;;;;;;;30.70;21.97;;;;;;;6.69;69.27;153078.81;5038903;28;20476;-77